sensor_id;sensor_type;location;lat;lon;timestamp;pressure;altitude;pressure_sealevel;temperature;humidity
9325;BME280;4701;51.566;6.776;2023-03-03T07:02:44;102176.69;;;0.44;100.00
9325;BME280;4701;51.566;6.776;2023-03-03T07:04:46;102178.06;;;0.48;100.00
9325;BME280;4701;51.566;6.776;2023-03-03T07:06:48;102179.06;;;0.55;100.00
9325;BME280;4701;51.566;6.776;2023-03-03T07:08:50;102189.34;;;0.59;100.00
9325;BME280;4701;51.566;6.776;2023-03-03T07:10:53;102181.59;;;0.64;100.00
9325;BME280;4701;51.566;6.776;2023-03-03T07:12:56;102186.13;;;0.72;100.00
9325;BME280;4701;51.566;6.776;2023-03-03T07:15:14;102184.81;;;0.84;100.00
9325;BME280;4701;51.566;6.776;2023-03-03T07:17:18;102187.13;;;0.87;100.00
9325;BME280;4701;51.566;6.776;2023-03-03T07:19:28;102191.66;;;0.95;100.00
9325;BME280;4701;51.566;6.776;2023-03-03T07:21:33;102191.84;;;1.01;100.00
9325;BME280;4701;51.566;6.776;2023-03-03T07:23:37;102199.38;;;1.06;100.00
9325;BME280;4701;51.566;6.776;2023-03-03T07:25:42;102193.50;;;1.02;100.00
9325;BME280;4701;51.566;6.776;2023-03-03T07:27:46;102198.88;;;1.02;100.00
9325;BME280;4701;51.566;6.776;2023-03-03T07:29:49;102200.06;;;1.08;100.00
9325;BME280;4701;51.566;6.776;2023-03-03T07:31:52;102203.25;;;1.03;100.00
9325;BME280;4701;51.566;6.776;2023-03-03T07:33:56;102198.53;;;1.05;100.00
9325;BME280;4701;51.566;6.776;2023-03-03T07:36:02;102203.06;;;1.13;100.00
9325;BME280;4701;51.566;6.776;2023-03-03T07:38:22;102207.44;;;1.14;100.00
9325;BME280;4701;51.566;6.776;2023-03-03T07:40:34;102207.13;;;1.09;100.00
9325;BME280;4701;51.566;6.776;2023-03-03T07:42:39;102209.44;;;1.20;100.00
9325;BME280;4701;51.566;6.776;2023-03-03T07:45:01;102212.13;;;1.20;100.00
9325;BME280;4701;51.566;6.776;2023-03-03T07:47:16;102216.50;;;1.21;100.00
9325;BME280;4701;51.566;6.776;2023-03-03T07:49:21;102226.56;;;1.27;100.00
9325;BME280;4701;51.566;6.776;2023-03-03T07:51:26;102229.06;;;1.29;100.00
9325;BME280;4701;51.566;6.776;2023-03-03T07:53:29;102226.56;;;1.27;100.00
9325;BME280;4701;51.566;6.776;2023-03-03T07:55:35;102232.75;;;1.28;100.00
9325;BME280;4701;51.566;6.776;2023-03-03T07:57:37;102229.75;;;1.31;100.00
9325;BME280;4701;51.566;6.776;2023-03-03T07:59:44;102225.38;;;1.30;99.99
9325;BME280;4701;51.566;6.776;2023-03-03T08:01:51;102233.78;;;1.27;99.51
9325;BME280;4701;51.566;6.776;2023-03-03T08:03:54;102233.28;;;1.31;100.00
9325;BME280;4701;51.566;6.776;2023-03-03T08:05:56;102231.25;;;1.41;100.00
9325;BME280;4701;51.566;6.776;2023-03-03T08:08:13;102233.94;;;1.41;99.74
9325;BME280;4701;51.566;6.776;2023-03-03T08:10:30;102236.28;;;1.44;100.00
9325;BME280;4701;51.566;6.776;2023-03-03T08:12:37;102243.31;;;1.53;100.00
9325;BME280;4701;51.566;6.776;2023-03-03T08:14:41;102241.97;;;1.58;100.00
9325;BME280;4701;51.566;6.776;2023-03-03T08:16:43;102244.66;;;1.58;99.81
9325;BME280;4701;51.566;6.776;2023-03-03T08:18:46;102249.50;;;1.62;99.37
9325;BME280;4701;51.566;6.776;2023-03-03T08:20:50;102253.53;;;1.66;99.38
9325;BME280;4701;51.566;6.776;2023-03-03T08:22:52;102253.84;;;1.71;98.18
9325;BME280;4701;51.566;6.776;2023-03-03T08:24:55;102248.19;;;1.58;98.46
9325;BME280;4701;51.566;6.776;2023-03-03T08:27:00;102251.00;;;1.65;98.98
9325;BME280;4701;51.566;6.776;2023-03-03T08:29:02;102260.06;;;1.72;98.55
9325;BME280;4701;51.566;6.776;2023-03-03T08:31:04;102251.34;;;1.78;97.49
9325;BME280;4701;51.566;6.776;2023-03-03T08:33:06;102259.59;;;1.68;97.66
9325;BME280;4701;51.566;6.776;2023-03-03T08:35:08;102261.28;;;1.61;97.87
9325;BME280;4701;51.566;6.776;2023-03-03T08:37:10;102264.00;;;1.53;98.09
9325;BME280;4701;51.566;6.776;2023-03-03T08:39:12;102257.25;;;1.57;98.35
9325;BME280;4701;51.566;6.776;2023-03-03T08:41:15;102254.72;;;1.56;98.03
9325;BME280;4701;51.566;6.776;2023-03-03T08:43:17;102262.94;;;1.54;97.74
9325;BME280;4701;51.566;6.776;2023-03-03T08:45:21;102270.19;;;1.53;97.54
9325;BME280;4701;51.566;6.776;2023-03-03T08:47:23;102274.06;;;1.59;97.57
9325;BME280;4701;51.566;6.776;2023-03-03T08:49:24;102264.78;;;1.62;97.80
9325;BME280;4701;51.566;6.776;2023-03-03T08:51:26;102266.97;;;1.74;97.36
9325;BME280;4701;51.566;6.776;2023-03-03T08:53:28;102268.31;;;1.78;96.63
9325;BME280;4701;51.566;6.776;2023-03-03T08:55:33;102265.94;;;1.75;96.60
9325;BME280;4701;51.566;6.776;2023-03-03T08:57:36;102270.19;;;1.70;96.44
9325;BME280;4701;51.566;6.776;2023-03-03T08:59:38;102259.75;;;1.67;96.70
9325;BME280;4701;51.566;6.776;2023-03-03T09:01:40;102270.53;;;1.59;96.90
9325;BME280;4701;51.566;6.776;2023-03-03T09:03:44;102268.81;;;1.66;97.06
9325;BME280;4701;51.566;6.776;2023-03-03T09:05:46;102279.03;;;1.70;96.86
9325;BME280;4701;51.566;6.776;2023-03-03T09:07:48;102272.88;;;1.70;96.62
9325;BME280;4701;51.566;6.776;2023-03-03T09:09:50;102278.59;;;1.50;96.33
9325;BME280;4701;51.566;6.776;2023-03-03T09:11:52;102294.72;;;1.50;96.66
9325;BME280;4701;51.566;6.776;2023-03-03T09:14:05;102294.22;;;1.47;96.75
9325;BME280;4701;51.566;6.776;2023-03-03T09:16:12;102295.22;;;1.46;97.34
9325;BME280;4701;51.566;6.776;2023-03-03T09:18:16;102301.25;;;1.48;98.01
9325;BME280;4701;51.566;6.776;2023-03-03T09:20:37;102301.09;;;1.49;97.94
9325;BME280;4701;51.566;6.776;2023-03-03T09:22:39;102296.25;;;1.53;98.40
9325;BME280;4701;51.566;6.776;2023-03-03T09:24:41;102305.63;;;1.65;98.47
9325;BME280;4701;51.566;6.776;2023-03-03T09:26:44;102303.06;;;1.80;97.38
9325;BME280;4701;51.566;6.776;2023-03-03T09:28:46;102308.94;;;1.83;96.41
9325;BME280;4701;51.566;6.776;2023-03-03T09:30:51;102304.75;;;1.73;95.72
9325;BME280;4701;51.566;6.776;2023-03-03T09:32:55;102299.06;;;1.68;95.64
9325;BME280;4701;51.566;6.776;2023-03-03T09:34:58;102295.53;;;1.75;95.67
9325;BME280;4701;51.566;6.776;2023-03-03T09:37:14;102295.00;;;1.72;95.68
9325;BME280;4701;51.566;6.776;2023-03-03T09:39:21;102293.81;;;1.82;95.38
9325;BME280;4701;51.566;6.776;2023-03-03T09:41:43;102293.97;;;1.89;95.09
9325;BME280;4701;51.566;6.776;2023-03-03T09:43:56;102299.16;;;1.99;94.17
9325;BME280;4701;51.566;6.776;2023-03-03T09:46:07;102303.38;;;1.93;94.65
9325;BME280;4701;51.566;6.776;2023-03-03T09:48:31;102309.91;;;1.99;94.57
9325;BME280;4701;51.566;6.776;2023-03-03T09:50:44;102304.03;;;2.03;95.23
9325;BME280;4701;51.566;6.776;2023-03-03T09:52:51;102306.50;;;2.13;95.14
9325;BME280;4701;51.566;6.776;2023-03-03T09:55:05;102307.66;;;2.26;93.70
9325;BME280;4701;51.566;6.776;2023-03-03T09:57:14;102305.66;;;2.20;93.43
9325;BME280;4701;51.566;6.776;2023-03-03T09:59:26;102303.75;;;2.37;93.73
9325;BME280;4701;51.566;6.776;2023-03-03T10:01:50;102309.56;;;2.49;92.55
9325;BME280;4701;51.566;6.776;2023-03-03T10:04:08;102310.91;;;2.53;91.94
9325;BME280;4701;51.566;6.776;2023-03-03T10:06:18;102311.06;;;2.51;91.52
9325;BME280;4701;51.566;6.776;2023-03-03T10:08:40;102313.94;;;2.50;90.90
9325;BME280;4701;51.566;6.776;2023-03-03T10:11:01;102307.19;;;2.54;90.19
9325;BME280;4701;51.566;6.776;2023-03-03T10:13:17;102313.06;;;2.57;90.50
9325;BME280;4701;51.566;6.776;2023-03-03T10:15:34;102323.13;;;2.63;88.93
9325;BME280;4701;51.566;6.776;2023-03-03T10:17:47;102324.53;;;2.51;89.03
9325;BME280;4701;51.566;6.776;2023-03-03T10:20:01;102325.38;;;2.52;88.62
9325;BME280;4701;51.566;6.776;2023-03-03T10:22:17;102326.53;;;2.49;87.73
9325;BME280;4701;51.566;6.776;2023-03-03T10:24:26;102317.34;;;2.44;88.37
9325;BME280;4701;51.566;6.776;2023-03-03T10:29:10;102325.25;;;2.45;88.92
9325;BME280;4701;51.566;6.776;2023-03-03T10:31:25;102331.94;;;2.49;89.48
9325;BME280;4701;51.566;6.776;2023-03-03T10:33:38;102327.19;;;2.59;88.94
9325;BME280;4701;51.566;6.776;2023-03-03T10:36:00;102335.22;;;2.67;88.63
9325;BME280;4701;51.566;6.776;2023-03-03T10:38:14;102335.22;;;2.67;88.89
9325;BME280;4701;51.566;6.776;2023-03-03T10:40:25;102330.00;;;2.66;89.04
9325;BME280;4701;51.566;6.776;2023-03-03T10:42:49;102330.31;;;2.71;88.68
9325;BME280;4701;51.566;6.776;2023-03-03T10:45:11;102336.47;;;2.88;88.66
9325;BME280;4701;51.566;6.776;2023-03-03T10:47:40;102337.38;;;3.03;88.03
9325;BME280;4701;51.566;6.776;2023-03-03T10:49:55;102332.75;;;3.12;87.23
9325;BME280;4701;51.566;6.776;2023-03-03T10:52:16;102332.53;;;3.21;87.13
9325;BME280;4701;51.566;6.776;2023-03-03T10:54:33;102334.78;;;3.32;85.99
9325;BME280;4701;51.566;6.776;2023-03-03T10:56:46;102328.03;;;3.36;84.72
9325;BME280;4701;51.566;6.776;2023-03-03T10:59:02;102329.31;;;3.40;84.74
9325;BME280;4701;51.566;6.776;2023-03-03T11:01:11;102331.25;;;3.32;85.36
9325;BME280;4701;51.566;6.776;2023-03-03T11:03:41;102330.13;;;3.26;85.94
9325;BME280;4701;51.566;6.776;2023-03-03T11:05:50;102322.28;;;3.39;86.06
9325;BME280;4701;51.566;6.776;2023-03-03T11:07:57;102321.22;;;3.63;85.07
9325;BME280;4701;51.566;6.776;2023-03-03T11:10:14;102328.59;;;3.84;83.84
9325;BME280;4701;51.566;6.776;2023-03-03T11:12:27;102323.88;;;3.86;83.87
9325;BME280;4701;51.566;6.776;2023-03-03T11:14:39;102323.88;;;4.01;82.51
9325;BME280;4701;51.566;6.776;2023-03-03T11:16:54;102320.25;;;4.08;82.43
9325;BME280;4701;51.566;6.776;2023-03-03T11:19:20;102328.19;;;4.25;81.28
9325;BME280;4701;51.566;6.776;2023-03-03T11:21:33;102321.66;;;4.19;81.85
9325;BME280;4701;51.566;6.776;2023-03-03T11:23:51;102326.47;;;4.09;81.21
9325;BME280;4701;51.566;6.776;2023-03-03T11:26:06;102319.53;;;4.14;81.76
9325;BME280;4701;51.566;6.776;2023-03-03T11:28:24;102322.78;;;4.25;81.63
9325;BME280;4701;51.566;6.776;2023-03-03T11:30:59;102316.34;;;4.40;81.21
9325;BME280;4701;51.566;6.776;2023-03-03T11:33:06;102306.84;;;4.44;80.10
9325;BME280;4701;51.566;6.776;2023-03-03T11:35:19;102304.78;;;4.46;79.86
9325;BME280;4701;51.566;6.776;2023-03-03T11:37:28;102305.88;;;4.52;79.66
9325;BME280;4701;51.566;6.776;2023-03-03T11:39:36;102303.41;;;4.50;78.24
9325;BME280;4701;51.566;6.776;2023-03-03T11:41:41;102297.69;;;4.60;78.95
9325;BME280;4701;51.566;6.776;2023-03-03T11:43:46;102301.09;;;4.83;79.57
9325;BME280;4701;51.566;6.776;2023-03-03T11:45:52;102308.78;;;5.01;78.33
9325;BME280;4701;51.566;6.776;2023-03-03T11:47:58;102302.91;;;5.19;77.96
9325;BME280;4701;51.566;6.776;2023-03-03T11:50:04;102302.06;;;5.40;77.23
9325;BME280;4701;51.566;6.776;2023-03-03T11:52:23;102296.25;;;5.70;75.36
9325;BME280;4701;51.566;6.776;2023-03-03T11:54:30;102293.81;;;5.76;74.85
9325;BME280;4701;51.566;6.776;2023-03-03T11:56:38;102293.09;;;5.88;73.33
9325;BME280;4701;51.566;6.776;2023-03-03T11:58:44;102283.28;;;6.15;73.46
9325;BME280;4701;51.566;6.776;2023-03-03T12:00:50;102286.31;;;6.40;72.56
9325;BME280;4701;51.566;6.776;2023-03-03T12:03:10;102286.56;;;6.52;71.89
9325;BME280;4701;51.566;6.776;2023-03-03T12:05:25;102289.13;;;6.73;70.26
9325;BME280;4701;51.566;6.776;2023-03-03T12:07:31;102280.78;;;6.55;71.22
9325;BME280;4701;51.566;6.776;2023-03-03T12:09:43;102276.41;;;6.60;70.22
9325;BME280;4701;51.566;6.776;2023-03-03T12:11:49;102281.63;;;6.68;70.30
9325;BME280;4701;51.566;6.776;2023-03-03T12:13:57;102280.03;;;7.07;70.15
9325;BME280;4701;51.566;6.776;2023-03-03T12:16:06;102275.50;;;7.47;68.98
9325;BME280;4701;51.566;6.776;2023-03-03T12:18:26;102277.53;;;8.04;65.45
9325;BME280;4701;51.566;6.776;2023-03-03T12:20:36;102277.50;;;8.68;64.46
9325;BME280;4701;51.566;6.776;2023-03-03T12:22:47;102271.31;;;9.24;62.24
9325;BME280;4701;51.566;6.776;2023-03-03T12:25:20;102263.81;;;10.31;59.62
9325;BME280;4701;51.566;6.776;2023-03-03T12:27:29;102263.69;;;11.04;57.68
9325;BME280;4701;51.566;6.776;2023-03-03T12:29:40;102256.28;;;11.46;55.48
9325;BME280;4701;51.566;6.776;2023-03-03T12:31:50;102254.75;;;12.20;54.35
9325;BME280;4701;51.566;6.776;2023-03-03T12:33:58;102248.81;;;13.91;49.81
9325;BME280;4701;51.566;6.776;2023-03-03T12:36:11;102248.38;;;16.30;44.36
9325;BME280;4701;51.566;6.776;2023-03-03T12:38:24;102249.47;;;17.72;37.90
9325;BME280;4701;51.566;6.776;2023-03-03T12:40:33;102240.34;;;17.87;35.75
9325;BME280;4701;51.566;6.776;2023-03-03T12:42:44;102248.91;;;17.09;37.13
9325;BME280;4701;51.566;6.776;2023-03-03T12:44:53;102241.59;;;15.95;38.90
9325;BME280;4701;51.566;6.776;2023-03-03T12:47:00;102237.97;;;15.84;39.26
9325;BME280;4701;51.566;6.776;2023-03-03T12:49:05;102231.47;;;15.59;39.83
9325;BME280;4701;51.566;6.776;2023-03-03T12:51:14;102236.00;;;15.11;39.93
9325;BME280;4701;51.566;6.776;2023-03-03T12:53:27;102238.50;;;15.81;38.89
9325;BME280;4701;51.566;6.776;2023-03-03T12:55:39;102232.19;;;15.49;39.23
9325;BME280;4701;51.566;6.776;2023-03-03T12:57:52;102234.63;;;15.82;38.62
9325;BME280;4701;51.566;6.776;2023-03-03T13:00:17;102238.09;;;15.63;38.27
9325;BME280;4701;51.566;6.776;2023-03-03T13:02:37;102230.19;;;13.55;41.16
9325;BME280;4701;51.566;6.776;2023-03-03T13:04:44;102230.34;;;11.02;46.30
9325;BME280;4701;51.566;6.776;2023-03-03T13:06:54;102231.63;;;9.84;49.80
9325;BME280;4701;51.566;6.776;2023-03-03T13:09:13;102229.13;;;9.83;50.44
9325;BME280;4701;51.566;6.776;2023-03-03T13:11:29;102220.56;;;10.16;49.99
9325;BME280;4701;51.566;6.776;2023-03-03T13:13:41;102224.06;;;10.41;49.30
9325;BME280;4701;51.566;6.776;2023-03-03T13:15:58;102225.88;;;11.65;48.60
9325;BME280;4701;51.566;6.776;2023-03-03T13:18:15;102228.88;;;11.99;47.64
9325;BME280;4701;51.566;6.776;2023-03-03T13:20:25;102224.56;;;12.83;45.99
9325;BME280;4701;51.566;6.776;2023-03-03T13:22:36;102221.84;;;13.83;44.56
9325;BME280;4701;51.566;6.776;2023-03-03T13:24:48;102223.22;;;14.95;41.93
9325;BME280;4701;51.566;6.776;2023-03-03T13:26:57;102214.66;;;15.97;39.22
9325;BME280;4701;51.566;6.776;2023-03-03T13:29:08;102220.94;;;16.55;37.25
9325;BME280;4701;51.566;6.776;2023-03-03T13:31:15;102208.03;;;15.93;37.77
9325;BME280;4701;51.566;6.776;2023-03-03T13:33:24;102212.66;;;15.45;39.38
9325;BME280;4701;51.566;6.776;2023-03-03T13:35:32;102214.28;;;15.83;38.15
9325;BME280;4701;51.566;6.776;2023-03-03T13:37:41;102209.13;;;15.92;38.24
9325;BME280;4701;51.566;6.776;2023-03-03T13:39:52;102205.84;;;15.53;38.11
9325;BME280;4701;51.566;6.776;2023-03-03T13:42:00;102209.53;;;15.00;39.20
9325;BME280;4701;51.566;6.776;2023-03-03T13:44:09;102208.34;;;14.91;39.62
9325;BME280;4701;51.566;6.776;2023-03-03T13:46:16;102204.25;;;16.04;38.21
9325;BME280;4701;51.566;6.776;2023-03-03T13:48:29;102201.41;;;16.56;37.19
9325;BME280;4701;51.566;6.776;2023-03-03T13:50:43;102196.16;;;16.40;37.90
9325;BME280;4701;51.566;6.776;2023-03-03T13:52:57;102192.34;;;16.56;38.12
9325;BME280;4701;51.566;6.776;2023-03-03T13:55:10;102195.94;;;17.88;36.48
9325;BME280;4701;51.566;6.776;2023-03-03T13:59:54;102180.69;;;18.65;33.79
9325;BME280;4701;51.566;6.776;2023-03-03T14:02:04;102179.56;;;18.17;34.14
9325;BME280;4701;51.566;6.776;2023-03-03T14:04:13;102179.50;;;18.27;34.03
9325;BME280;4701;51.566;6.776;2023-03-03T14:06:21;102173.84;;;17.88;34.96
9325;BME280;4701;51.566;6.776;2023-03-03T14:08:39;102182.19;;;17.53;34.68
9325;BME280;4701;51.566;6.776;2023-03-03T14:10:48;102185.28;;;17.00;35.49
9325;BME280;4701;51.566;6.776;2023-03-03T14:13:01;102179.09;;;16.53;36.56
9325;BME280;4701;51.566;6.776;2023-03-03T14:15:10;102172.53;;;15.44;37.70
9325;BME280;4701;51.566;6.776;2023-03-03T14:17:25;102163.47;;;14.05;39.46
9325;BME280;4701;51.566;6.776;2023-03-03T14:19:31;102163.63;;;13.38;41.88
9325;BME280;4701;51.566;6.776;2023-03-03T14:21:39;102163.16;;;13.24;41.06
9325;BME280;4701;51.566;6.776;2023-03-03T14:23:49;102165.31;;;13.39;41.51
9325;BME280;4701;51.566;6.776;2023-03-03T14:26:00;102159.44;;;13.69;41.65
9325;BME280;4701;51.566;6.776;2023-03-03T14:28:11;102156.44;;;13.15;42.22
9325;BME280;4701;51.566;6.776;2023-03-03T14:30:32;102159.13;;;12.36;43.70
9325;BME280;4701;51.566;6.776;2023-03-03T14:32:34;102155.94;;;12.28;44.11
9325;BME280;4701;51.566;6.776;2023-03-03T14:34:37;102154.75;;;12.80;43.15
9325;BME280;4701;51.566;6.776;2023-03-03T14:36:42;102153.09;;;13.30;42.16
9325;BME280;4701;51.566;6.776;2023-03-03T14:38:46;102154.72;;;13.25;41.94
9325;BME280;4701;51.566;6.776;2023-03-03T14:41:03;102158.69;;;13.18;43.24
9325;BME280;4701;51.566;6.776;2023-03-03T14:43:22;102154.13;;;13.62;42.82
9325;BME280;4701;51.566;6.776;2023-03-03T14:45:31;102151.53;;;13.72;41.68
9325;BME280;4701;51.566;6.776;2023-03-03T14:47:36;102150.53;;;13.06;42.56
9325;BME280;4701;51.566;6.776;2023-03-03T14:49:44;102146.75;;;12.34;44.28
9325;BME280;4701;51.566;6.776;2023-03-03T14:51:48;102151.44;;;12.33;44.25
9325;BME280;4701;51.566;6.776;2023-03-03T14:53:50;102156.81;;;12.73;44.15
9325;BME280;4701;51.566;6.776;2023-03-03T14:55:53;102149.47;;;12.45;44.92
9325;BME280;4701;51.566;6.776;2023-03-03T14:57:55;102151.44;;;12.95;43.53
9325;BME280;4701;51.566;6.776;2023-03-03T15:00:01;102147.94;;;13.50;42.36
9325;BME280;4701;51.566;6.776;2023-03-03T15:02:36;102141.78;;;14.25;41.81
9325;BME280;4701;51.566;6.776;2023-03-03T15:04:38;102143.34;;;14.96;40.46
9325;BME280;4701;51.566;6.776;2023-03-03T15:06:42;102131.00;;;14.40;40.34
9325;BME280;4701;51.566;6.776;2023-03-03T15:08:44;102138.34;;;13.31;42.16
9325;BME280;4701;51.566;6.776;2023-03-03T15:10:47;102135.50;;;13.42;42.36
9325;BME280;4701;51.566;6.776;2023-03-03T15:12:49;102132.41;;;13.17;42.96
9325;BME280;4701;51.566;6.776;2023-03-03T15:14:52;102131.69;;;11.91;44.83
9325;BME280;4701;51.566;6.776;2023-03-03T15:17:25;102125.91;;;10.71;47.78
9325;BME280;4701;51.566;6.776;2023-03-03T15:19:42;102123.50;;;10.03;49.51
9325;BME280;4701;51.566;6.776;2023-03-03T15:21:54;102125.56;;;9.53;52.16
9325;BME280;4701;51.566;6.776;2023-03-03T15:24:03;102127.31;;;9.84;52.23
9325;BME280;4701;51.566;6.776;2023-03-03T15:26:08;102128.72;;;10.23;51.50
9325;BME280;4701;51.566;6.776;2023-03-03T15:28:21;102127.16;;;10.45;50.82
9325;BME280;4701;51.566;6.776;2023-03-03T15:30:31;102126.38;;;10.27;50.70
9325;BME280;4701;51.566;6.776;2023-03-03T15:32:44;102119.13;;;10.02;51.18
9325;BME280;4701;51.566;6.776;2023-03-03T15:34:53;102116.63;;;10.19;51.43
9325;BME280;4701;51.566;6.776;2023-03-03T15:37:06;102123.53;;;10.63;50.70
9325;BME280;4701;51.566;6.776;2023-03-03T15:39:17;102123.66;;;10.38;49.86
9325;BME280;4701;51.566;6.776;2023-03-03T15:41:26;102121.09;;;10.43;50.18
9325;BME280;4701;51.566;6.776;2023-03-03T15:43:38;102120.31;;;10.66;49.97
9325;BME280;4701;51.566;6.776;2023-03-03T15:45:48;102115.38;;;10.86;49.79
9325;BME280;4701;51.566;6.776;2023-03-03T15:48:04;102111.59;;;11.11;48.89
9325;BME280;4701;51.566;6.776;2023-03-03T15:50:25;102116.69;;;10.95;49.36
9325;BME280;4701;51.566;6.776;2023-03-03T15:52:44;102108.97;;;10.92;49.24
9325;BME280;4701;51.566;6.776;2023-03-03T15:55:00;102107.19;;;10.86;50.02
9325;BME280;4701;51.566;6.776;2023-03-03T15:57:13;102103.16;;;11.00;49.99
9325;BME280;4701;51.566;6.776;2023-03-03T15:59:32;102106.50;;;11.14;49.76
9325;BME280;4701;51.566;6.776;2023-03-03T16:01:47;102101.75;;;11.10;48.90
9325;BME280;4701;51.566;6.776;2023-03-03T16:03:57;102099.38;;;10.78;49.40
9325;BME280;4701;51.566;6.776;2023-03-03T16:06:04;102109.81;;;10.40;50.56
9325;BME280;4701;51.566;6.776;2023-03-03T16:08:11;102108.91;;;10.46;50.35
9325;BME280;4701;51.566;6.776;2023-03-03T16:10:20;102106.78;;;10.59;50.02
9325;BME280;4701;51.566;6.776;2023-03-03T16:12:30;102106.19;;;10.57;49.53
9325;BME280;4701;51.566;6.776;2023-03-03T16:14:53;102108.66;;;10.47;49.71
9325;BME280;4701;51.566;6.776;2023-03-03T16:17:01;102115.25;;;10.40;50.31
9325;BME280;4701;51.566;6.776;2023-03-03T16:19:19;102096.06;;;10.16;50.59
9325;BME280;4701;51.566;6.776;2023-03-03T16:21:32;102118.50;;;10.00;50.48
9325;BME280;4701;51.566;6.776;2023-03-03T16:23:38;102109.09;;;9.84;51.20
9325;BME280;4701;51.566;6.776;2023-03-03T16:26:05;102105.97;;;9.63;52.13
9325;BME280;4701;51.566;6.776;2023-03-03T16:28:11;102101.53;;;9.50;53.04
9325;BME280;4701;51.566;6.776;2023-03-03T16:30:25;102103.25;;;9.44;52.58
9325;BME280;4701;51.566;6.776;2023-03-03T16:32:33;102106.41;;;9.23;53.94
9325;BME280;4701;51.566;6.776;2023-03-03T16:34:46;102106.41;;;9.23;54.90
9325;BME280;4701;51.566;6.776;2023-03-03T16:37:02;102107.16;;;9.12;54.84
9325;BME280;4701;51.566;6.776;2023-03-03T16:39:11;102112.50;;;9.00;55.01
9325;BME280;4701;51.566;6.776;2023-03-03T16:41:19;102109.88;;;8.87;55.13
9325;BME280;4701;51.566;6.776;2023-03-03T16:43:27;102115.09;;;8.64;56.77
9325;BME280;4701;51.566;6.776;2023-03-03T16:45:37;102110.50;;;8.33;56.19
9325;BME280;4701;51.566;6.776;2023-03-03T16:47:51;102115.19;;;8.13;57.25
9325;BME280;4701;51.566;6.776;2023-03-03T16:50:06;102128.88;;;7.86;58.33
9325;BME280;4701;51.566;6.776;2023-03-03T16:52:12;102125.66;;;7.51;59.46
9325;BME280;4701;51.566;6.776;2023-03-03T16:54:19;102119.22;;;7.26;60.65
9325;BME280;4701;51.566;6.776;2023-03-03T16:56:31;102127.38;;;7.06;61.53
9325;BME280;4701;51.566;6.776;2023-03-03T16:58:43;102124.69;;;6.93;61.97
9325;BME280;4701;51.566;6.776;2023-03-03T17:00:53;102132.41;;;6.83;62.33
9325;BME280;4701;51.566;6.776;2023-03-03T17:03:16;102127.81;;;6.64;63.64
9325;BME280;4701;51.566;6.776;2023-03-03T17:05:32;102136.34;;;6.54;64.00
9325;BME280;4701;51.566;6.776;2023-03-03T17:07:41;102133.81;;;6.39;64.45
9325;BME280;4701;51.566;6.776;2023-03-03T17:10:01;102133.34;;;6.23;64.52
9325;BME280;4701;51.566;6.776;2023-03-03T17:12:17;102136.63;;;6.05;65.90
9325;BME280;4701;51.566;6.776;2023-03-03T17:14:34;102141.75;;;5.87;67.43
9325;BME280;4701;51.566;6.776;2023-03-03T17:16:44;102134.78;;;5.71;68.04
9325;BME280;4701;51.566;6.776;2023-03-03T17:18:58;102144.72;;;5.57;69.14
9325;BME280;4701;51.566;6.776;2023-03-03T17:21:08;102145.06;;;5.48;69.62
9325;BME280;4701;51.566;6.776;2023-03-03T17:23:27;102140.47;;;5.42;69.68
9325;BME280;4701;51.566;6.776;2023-03-03T17:25:37;102146.69;;;5.36;70.67
9325;BME280;4701;51.566;6.776;2023-03-03T17:27:57;102148.31;;;5.37;70.83
9325;BME280;4701;51.566;6.776;2023-03-03T17:30:07;102146.06;;;5.40;71.35
9325;BME280;4701;51.566;6.776;2023-03-03T17:32:31;102142.91;;;5.37;71.39
9325;BME280;4701;51.566;6.776;2023-03-03T17:34:46;102151.66;;;5.39;71.52
9325;BME280;4701;51.566;6.776;2023-03-03T17:37:02;102155.00;;;5.41;71.87
9325;BME280;4701;51.566;6.776;2023-03-03T17:39:26;102151.47;;;5.40;71.75
9325;BME280;4701;51.566;6.776;2023-03-03T17:41:33;102162.47;;;5.39;71.82
9325;BME280;4701;51.566;6.776;2023-03-03T17:43:42;102159.78;;;5.39;72.70
9325;BME280;4701;51.566;6.776;2023-03-03T17:45:50;102160.63;;;5.39;72.53
9325;BME280;4701;51.566;6.776;2023-03-03T17:48:06;102165.00;;;5.40;72.72
9325;BME280;4701;51.566;6.776;2023-03-03T17:50:22;102155.19;;;5.39;72.88
9325;BME280;4701;51.566;6.776;2023-03-03T17:52:41;102164.94;;;5.33;73.63
9325;BME280;4701;51.566;6.776;2023-03-03T17:55:08;102164.69;;;5.28;73.92
9325;BME280;4701;51.566;6.776;2023-03-03T17:57:24;102164.66;;;5.22;74.29
9325;BME280;4701;51.566;6.776;2023-03-03T18:02:36;102169.41;;;5.20;75.59
9325;BME280;4701;51.566;6.776;2023-03-03T18:04:55;102174.81;;;5.20;75.66
9325;BME280;4701;51.566;6.776;2023-03-03T18:07:20;102178.34;;;5.20;77.32
9325;BME280;4701;51.566;6.776;2023-03-03T18:09:43;102177.13;;;5.23;76.09
9325;BME280;4701;51.566;6.776;2023-03-03T18:12:03;102177.31;;;5.21;76.15
9325;BME280;4701;51.566;6.776;2023-03-03T18:14:24;102179.38;;;5.19;76.28
9325;BME280;4701;51.566;6.776;2023-03-03T18:16:41;102179.59;;;5.18;76.52
9325;BME280;4701;51.566;6.776;2023-03-03T18:19:05;102174.59;;;5.15;76.48
9325;BME280;4701;51.566;6.776;2023-03-03T18:21:15;102177.66;;;5.12;76.57
9325;BME280;4701;51.566;6.776;2023-03-03T18:23:28;102184.94;;;5.11;76.08
9325;BME280;4701;51.566;6.776;2023-03-03T18:25:53;102184.31;;;5.09;76.96
9325;BME280;4701;51.566;6.776;2023-03-03T18:28:20;102188.88;;;5.09;76.28
9325;BME280;4701;51.566;6.776;2023-03-03T18:30:25;102185.25;;;5.23;74.68
9325;BME280;4701;51.566;6.776;2023-03-03T18:32:39;102182.50;;;5.16;74.04
9325;BME280;4701;51.566;6.776;2023-03-03T18:34:41;102181.91;;;5.21;73.77
9325;BME280;4701;51.566;6.776;2023-03-03T18:36:52;102189.16;;;5.20;73.02
9325;BME280;4701;51.566;6.776;2023-03-03T18:38:55;102186.41;;;5.35;70.79
9325;BME280;4701;51.566;6.776;2023-03-03T18:41:00;102189.09;;;5.35;70.92
9325;BME280;4701;51.566;6.776;2023-03-03T18:43:46;102187.84;;;5.38;70.86
9325;BME280;4701;51.566;6.776;2023-03-03T18:45:50;102193.59;;;5.28;71.10
9325;BME280;4701;51.566;6.776;2023-03-03T18:48:05;102198.63;;;5.31;71.07
9325;BME280;4701;51.566;6.776;2023-03-03T18:50:15;102199.69;;;5.37;70.48
9325;BME280;4701;51.566;6.776;2023-03-03T18:52:31;102203.00;;;5.32;71.35
9325;BME280;4701;51.566;6.776;2023-03-03T18:54:38;102197.81;;;5.37;70.82
9325;BME280;4701;51.566;6.776;2023-03-03T18:56:44;102207.22;;;5.41;70.93
9325;BME280;4701;51.566;6.776;2023-03-03T18:58:49;102207.41;;;5.40;70.83